createdAt,value
2018-06-14T00:02:06.734Z,14.60
2018-06-14T00:04:35.290Z,14.60
2018-06-14T00:07:03.867Z,14.50
2018-06-14T00:09:32.418Z,14.50
2018-06-14T00:14:29.653Z,14.50
2018-06-14T00:16:58.238Z,14.40
2018-06-14T00:19:26.820Z,14.40
2018-06-14T00:21:55.401Z,14.40
2018-06-14T00:24:24.482Z,14.40
2018-06-14T00:26:53.021Z,14.40
2018-06-14T00:31:50.394Z,14.20
2018-06-14T00:34:19.546Z,14.10
2018-06-14T00:36:48.131Z,14.10
2018-06-14T00:39:16.725Z,14.10
2018-06-14T00:41:45.257Z,14.20
2018-06-14T00:44:14.436Z,14.20
2018-06-14T00:46:43.017Z,14.20
2018-06-14T00:51:39.798Z,14.10
2018-06-14T00:54:08.418Z,14.10
2018-06-14T00:56:48.482Z,14.10
2018-06-14T00:59:17.130Z,14.00
2018-06-14T01:01:46.060Z,14.10
2018-06-14T01:04:14.680Z,14.30
2018-06-14T01:06:44.347Z,14.30
2018-06-14T01:09:12.902Z,14.30
2018-06-14T01:11:41.916Z,14.30
2018-06-14T01:14:10.500Z,14.20
2018-06-14T01:16:39.061Z,14.30
2018-06-14T01:19:07.969Z,14.20
2018-06-14T01:21:36.525Z,14.20
2018-06-14T01:26:33.329Z,14.20
2018-06-14T01:29:01.930Z,14.10
2018-06-14T01:31:30.527Z,14.10
2018-06-14T01:33:59.749Z,14.10
2018-06-14T01:38:57.666Z,14.20
2018-06-14T01:41:27.138Z,14.20
2018-06-14T01:46:24.898Z,14.10
2018-06-14T01:48:53.485Z,14.10
2018-06-14T01:51:22.646Z,14.00
2018-06-14T01:53:51.213Z,13.90
2018-06-14T01:56:19.723Z,13.90
2018-06-14T01:58:48.294Z,13.90
2018-06-14T02:01:16.824Z,13.90
2018-06-14T02:03:46.088Z,14.10
2018-06-14T02:06:14.645Z,14.10
2018-06-14T02:08:43.193Z,14.10
2018-06-14T02:11:11.709Z,14.10
2018-06-14T02:13:40.981Z,14.10
2018-06-14T02:16:10.112Z,14.00
2018-06-14T02:18:40.399Z,14.10
2018-06-14T02:21:09.369Z,14.10
2018-06-14T02:23:37.922Z,14.10
2018-06-14T02:26:07.347Z,14.10
2018-06-14T02:28:35.931Z,14.10
2018-06-14T02:31:04.468Z,14.00
2018-06-14T02:36:01.298Z,13.90
2018-06-14T02:38:29.817Z,13.90
2018-06-14T02:40:58.377Z,13.90
2018-06-14T02:43:27.526Z,13.90
2018-06-14T02:45:56.081Z,14.00
2018-06-14T02:50:52.786Z,13.80
2018-06-14T02:53:21.317Z,13.90
2018-06-14T02:58:20.189Z,14.00
2018-06-14T03:00:49.426Z,14.00
2018-06-14T03:03:17.972Z,14.00
2018-06-14T03:05:47.223Z,14.00
2018-06-14T03:08:15.719Z,14.00
2018-06-14T03:10:44.285Z,14.00
2018-06-14T03:13:12.827Z,14.00
2018-06-14T03:15:41.442Z,14.10
2018-06-14T03:20:38.226Z,14.00
2018-06-14T03:23:06.815Z,14.00
2018-06-14T03:25:35.393Z,13.90
2018-06-14T03:28:03.973Z,13.90
2018-06-14T03:30:32.566Z,14.00
2018-06-14T03:33:01.097Z,14.00
2018-06-14T03:35:29.641Z,14.00
2018-06-14T03:37:58.180Z,14.10
2018-06-14T03:40:26.818Z,14.10
2018-06-14T03:42:55.422Z,14.00
2018-06-14T03:45:28.410Z,14.00
2018-06-14T03:47:56.994Z,14.00
2018-06-14T03:50:25.552Z,14.00
2018-06-14T03:52:54.163Z,14.00
2018-06-14T03:55:22.738Z,14.00
2018-06-14T03:57:51.277Z,14.10
2018-06-14T04:00:19.834Z,14.10
2018-06-14T04:02:48.346Z,14.10
2018-06-14T04:05:16.970Z,14.20
2018-06-14T04:07:45.509Z,14.20
2018-06-14T04:10:14.083Z,14.20
2018-06-14T04:17:39.489Z,14.20
2018-06-14T04:20:08.021Z,14.20
2018-06-14T04:25:05.028Z,14.10
2018-06-14T04:27:33.625Z,14.20
2018-06-14T04:30:02.169Z,14.30
2018-06-14T04:32:30.674Z,14.40
2018-06-14T04:34:59.267Z,14.50
2018-06-14T04:37:27.848Z,14.40
2018-06-14T04:39:56.422Z,14.40
2018-06-14T04:42:24.970Z,14.30
2018-06-14T04:47:21.745Z,14.40
2018-06-14T04:49:50.254Z,14.50
2018-06-14T04:52:18.866Z,14.70
2018-06-14T04:54:48.742Z,14.70
2018-06-14T04:57:17.671Z,14.80
2018-06-14T04:59:46.200Z,14.90
2018-06-14T05:02:14.803Z,14.90
2018-06-14T05:04:46.782Z,14.90
2018-06-14T05:07:16.356Z,15.00
2018-06-14T05:09:45.966Z,15.10
2018-06-14T05:12:14.850Z,15.20
2018-06-14T05:14:44.583Z,15.30
2018-06-14T05:17:13.198Z,15.20
2018-06-14T05:19:42.348Z,15.30
2018-06-14T05:22:11.133Z,15.40
2018-06-14T05:27:08.298Z,15.50
2018-06-14T05:32:05.313Z,15.70
2018-06-14T05:34:33.901Z,15.70
2018-06-14T05:37:02.480Z,15.70
2018-06-14T05:39:31.028Z,15.70
2018-06-14T05:41:59.621Z,15.70
2018-06-14T05:44:28.233Z,15.80
2018-06-14T05:46:56.800Z,15.90
2018-06-14T05:49:25.949Z,15.90
2018-06-14T05:51:54.506Z,16.00
2018-06-14T05:54:23.028Z,15.90
2018-06-14T05:56:51.691Z,16.00
2018-06-14T05:59:20.327Z,15.90
2018-06-14T06:01:48.991Z,16.00
2018-06-14T06:06:45.745Z,16.00
2018-06-14T06:09:14.282Z,16.10
2018-06-14T06:11:42.830Z,16.20
2018-06-14T06:14:11.342Z,16.30
2018-06-14T06:16:39.910Z,16.50
2018-06-14T06:19:08.478Z,16.70
2018-06-14T06:24:05.231Z,16.70
2018-06-14T06:29:02.539Z,16.80
2018-06-14T06:31:31.081Z,16.80
2018-06-14T06:36:28.023Z,16.80
2018-06-14T06:38:56.567Z,16.90
2018-06-14T06:41:25.147Z,16.80
2018-06-14T06:43:53.694Z,16.50
2018-06-14T06:46:22.283Z,16.30
2018-06-14T06:51:19.190Z,16.60
2018-06-14T06:53:47.888Z,16.80
2018-06-14T06:56:16.495Z,17.10
2018-06-14T06:58:45.525Z,17.40
2018-06-14T07:03:42.270Z,18.00
2018-06-14T07:08:39.177Z,18.40
2018-06-14T07:11:08.389Z,18.70
2018-06-14T07:13:36.950Z,18.70
2018-06-14T07:16:06.286Z,18.50
2018-06-14T07:18:34.830Z,18.70
2018-06-14T07:21:03.399Z,18.70
2018-06-14T07:23:31.987Z,18.90
2018-06-14T07:26:00.517Z,18.70
2018-06-14T07:28:29.100Z,18.80
2018-06-14T07:30:58.120Z,18.90
2018-06-14T07:33:26.675Z,18.50
2018-06-14T07:35:55.185Z,18.80
2018-06-14T07:38:23.802Z,18.70
2018-06-14T07:40:52.308Z,18.90
2018-06-14T07:43:20.868Z,19.00
2018-06-14T07:45:49.405Z,19.10
2018-06-14T07:48:17.974Z,19.30
2018-06-14T07:50:46.490Z,19.30
2018-06-14T07:53:15.040Z,19.40
2018-06-14T07:55:43.642Z,19.70
2018-06-14T07:58:12.844Z,20.00
2018-06-14T08:00:41.950Z,20.00
2018-06-14T08:03:10.493Z,19.80
2018-06-14T08:05:39.014Z,19.90
2018-06-14T08:08:07.759Z,20.30
2018-06-14T08:10:36.309Z,20.60
2018-06-14T08:15:33.684Z,21.10
2018-06-14T08:20:31.063Z,20.90
2018-06-14T08:25:28.291Z,20.70
2018-06-14T08:27:56.833Z,20.60
2018-06-14T08:30:25.349Z,20.30
2018-06-14T08:32:53.909Z,20.10
2018-06-14T08:35:22.461Z,19.70
2018-06-14T08:40:19.269Z,19.40
2018-06-14T08:42:47.796Z,19.40
2018-06-14T08:45:16.611Z,19.40
2018-06-14T08:47:45.208Z,19.50
2018-06-14T08:50:13.747Z,19.60
2018-06-14T08:52:42.314Z,19.70
2018-06-14T08:55:10.867Z,19.70
2018-06-14T08:57:39.509Z,19.70
2018-06-14T09:00:08.331Z,20.00
2018-06-14T09:02:40.396Z,20.20
2018-06-14T09:05:09.303Z,20.50
2018-06-14T09:07:37.837Z,20.60
2018-06-14T09:10:06.410Z,20.60
2018-06-14T09:12:35.055Z,20.30
2018-06-14T09:15:03.886Z,20.00
2018-06-14T09:17:32.435Z,20.20
2018-06-14T09:20:01.091Z,20.40
2018-06-14T09:22:29.657Z,20.30
2018-06-14T09:27:30.633Z,19.70
2018-06-14T09:29:59.213Z,19.80
2018-06-14T09:32:27.766Z,19.80
2018-06-14T09:34:56.359Z,19.90
2018-06-14T09:37:24.897Z,19.70
2018-06-14T09:39:53.460Z,19.60
2018-06-14T09:42:22.621Z,19.70
2018-06-14T09:44:52.011Z,20.00
2018-06-14T09:47:20.617Z,19.80
2018-06-14T09:49:49.181Z,19.70
2018-06-14T09:52:17.739Z,19.70
2018-06-14T09:54:46.324Z,19.80
2018-06-14T09:57:14.884Z,19.80
2018-06-14T09:59:43.546Z,19.60
2018-06-14T10:07:08.765Z,19.60
2018-06-14T10:09:37.319Z,19.80
2018-06-14T10:12:05.948Z,20.30
2018-06-14T10:14:35.205Z,20.30
2018-06-14T10:17:05.317Z,20.50
2018-06-14T10:19:35.761Z,20.60
2018-06-14T10:22:04.356Z,20.60
2018-06-14T10:24:32.919Z,20.70
2018-06-14T10:27:01.636Z,20.70
2018-06-14T10:29:31.518Z,20.80
2018-06-14T10:32:02.326Z,20.40
2018-06-14T10:34:36.254Z,20.40
2018-06-14T10:39:34.017Z,20.90
2018-06-14T10:44:31.457Z,21.00
2018-06-14T10:46:59.969Z,21.10
2018-06-14T10:51:56.694Z,21.00
2018-06-14T10:54:25.770Z,20.80
2018-06-14T10:56:54.550Z,21.10
2018-06-14T10:59:23.158Z,21.40
2018-06-14T11:01:51.732Z,21.40
2018-06-14T11:04:20.957Z,21.30
2018-06-14T11:06:49.498Z,21.40
2018-06-14T11:09:18.100Z,21.40
2018-06-14T11:11:46.594Z,21.50
2018-06-14T11:14:15.857Z,21.60
2018-06-14T11:16:44.410Z,21.30
2018-06-14T11:21:41.168Z,21.30
2018-06-14T11:26:38.031Z,21.80
2018-06-14T11:31:34.872Z,22.30
2018-06-14T11:34:03.479Z,22.10
2018-06-14T11:39:00.970Z,21.90
2018-06-14T11:43:58.576Z,21.50
2018-06-14T11:46:27.113Z,21.20
2018-06-14T11:48:55.641Z,20.90
2018-06-14T11:51:24.750Z,20.80
2018-06-14T11:53:54.707Z,21.00
2018-06-14T11:58:53.242Z,21.00
2018-06-14T12:01:24.100Z,20.90
2018-06-14T12:03:53.077Z,21.10
2018-06-14T12:06:21.649Z,21.40
2018-06-14T12:08:50.150Z,21.60
2018-06-14T12:11:18.698Z,21.80
2018-06-14T12:16:15.455Z,21.90
2018-06-14T12:21:12.176Z,21.80
2018-06-14T12:23:41.257Z,21.50
2018-06-14T12:26:09.802Z,21.50
2018-06-14T12:28:39.894Z,21.50
2018-06-14T12:31:08.466Z,21.70
2018-06-14T12:33:37.010Z,21.80
2018-06-14T12:36:06.050Z,21.90
2018-06-14T12:38:34.574Z,21.90
2018-06-14T12:41:03.131Z,21.90
2018-06-14T12:43:31.965Z,21.90
2018-06-14T12:46:00.534Z,21.90
2018-06-14T12:48:29.071Z,21.70
2018-06-14T12:50:57.631Z,21.70
2018-06-14T12:53:27.385Z,21.60
2018-06-14T12:55:56.687Z,21.50
2018-06-14T13:00:54.445Z,21.50
2018-06-14T13:03:23.045Z,21.50
2018-06-14T13:05:51.595Z,21.40
2018-06-14T13:08:20.173Z,21.70
2018-06-14T13:10:48.726Z,21.70
2018-06-14T13:15:45.737Z,21.90
2018-06-14T13:18:14.530Z,21.90
2018-06-14T13:20:43.204Z,21.90
2018-06-14T13:23:11.852Z,21.60
2018-06-14T13:28:08.656Z,21.70
2018-06-14T13:30:37.234Z,21.60
2018-06-14T13:33:06.010Z,21.50
2018-06-14T13:35:34.546Z,21.60
2018-06-14T13:38:03.129Z,21.90
2018-06-14T13:40:32.070Z,22.10
2018-06-14T13:43:00.634Z,22.30
2018-06-14T13:45:29.207Z,22.30
2018-06-14T13:50:26.000Z,22.50
2018-06-14T13:52:54.594Z,22.30
2018-06-14T13:55:23.091Z,22.00
2018-06-14T13:57:51.671Z,22.10
2018-06-14T14:00:20.194Z,22.00
2018-06-14T14:02:48.737Z,22.20
2018-06-14T14:05:17.265Z,22.30
2018-06-14T14:10:14.013Z,22.30
2018-06-14T14:12:42.546Z,22.40
2018-06-14T14:15:11.077Z,22.20
2018-06-14T14:17:39.625Z,22.30
2018-06-14T14:20:08.137Z,22.50
2018-06-14T14:25:05.785Z,22.50
2018-06-14T14:27:34.401Z,22.70
2018-06-14T14:30:02.978Z,22.70
2018-06-14T14:32:31.530Z,22.80
2018-06-14T14:35:00.055Z,22.80
2018-06-14T14:37:28.679Z,22.70
2018-06-14T14:39:57.252Z,22.80
2018-06-14T14:47:22.278Z,22.80
2018-06-14T14:49:50.806Z,22.80
2018-06-14T14:52:19.318Z,22.70
2018-06-14T14:54:47.813Z,22.70
2018-06-14T14:57:16.345Z,22.50
2018-06-14T14:59:44.863Z,22.50
2018-06-14T15:02:13.411Z,22.60
2018-06-14T15:04:41.903Z,22.70
2018-06-14T15:07:10.429Z,22.70
2018-06-14T15:09:38.976Z,22.70
2018-06-14T15:12:07.518Z,22.70
2018-06-14T15:22:01.260Z,22.50
2018-06-14T15:24:29.767Z,22.60
2018-06-14T15:26:58.307Z,22.50
2018-06-14T15:31:55.061Z,23.00
2018-06-14T15:36:51.841Z,23.20
2018-06-14T15:39:20.970Z,23.20
2018-06-14T15:41:50.097Z,23.30
2018-06-14T15:44:18.653Z,23.30
2018-06-14T15:46:47.162Z,23.40
2018-06-14T15:49:15.737Z,23.20
2018-06-14T15:51:44.230Z,23.00
2018-06-14T15:54:16.269Z,22.70
2018-06-14T15:56:44.818Z,22.60
2018-06-14T15:59:15.302Z,22.50
2018-06-14T16:01:43.833Z,22.40
2018-06-14T16:04:12.391Z,22.30
2018-06-14T16:09:10.970Z,22.40
2018-06-14T16:11:39.775Z,22.50
2018-06-14T16:14:08.443Z,22.50
2018-06-14T16:16:36.989Z,22.40
2018-06-14T16:19:05.993Z,22.40
2018-06-14T16:21:34.517Z,22.40
2018-06-14T16:24:03.094Z,22.50
2018-06-14T16:26:31.605Z,22.60
2018-06-14T16:31:29.521Z,22.60
2018-06-14T16:33:58.054Z,22.40
2018-06-14T16:36:26.633Z,22.30
2018-06-14T16:38:56.465Z,22.40
2018-06-14T16:41:25.969Z,22.30
2018-06-14T16:43:55.067Z,22.30
2018-06-14T16:51:19.982Z,22.40
2018-06-14T16:53:48.521Z,22.40
2018-06-14T16:56:17.044Z,22.40
2018-06-14T16:58:45.627Z,22.30
2018-06-14T17:01:14.249Z,22.10
2018-06-14T17:03:43.370Z,22.10
2018-06-14T17:06:11.891Z,22.00
2018-06-14T17:08:40.450Z,21.90
2018-06-14T17:11:09.091Z,21.90
2018-06-14T17:16:05.911Z,21.80
2018-06-14T17:18:34.404Z,21.80
2018-06-14T17:21:03.947Z,21.70
2018-06-14T17:26:00.666Z,21.70
2018-06-14T17:28:30.114Z,21.70
2018-06-14T17:30:58.771Z,21.60
2018-06-14T17:33:27.270Z,21.50
2018-06-14T17:35:55.823Z,21.40
2018-06-14T17:38:25.510Z,21.40
2018-06-14T17:40:54.130Z,21.40
2018-06-14T17:43:22.745Z,21.40
2018-06-14T17:48:19.466Z,21.20
2018-06-14T17:50:48.027Z,21.10
2018-06-14T17:53:16.589Z,21.00
2018-06-14T17:55:45.129Z,20.90
2018-06-14T17:58:13.658Z,21.00
2018-06-14T18:00:42.256Z,21.10
2018-06-14T18:03:10.733Z,21.00
2018-06-14T18:05:39.252Z,20.90
2018-06-14T18:08:07.921Z,20.80
2018-06-14T18:10:36.460Z,20.80
2018-06-14T18:15:33.210Z,20.90
2018-06-14T18:20:29.968Z,20.70
2018-06-14T18:27:54.870Z,20.50
2018-06-14T18:30:23.406Z,20.40
2018-06-14T18:32:51.952Z,20.30
2018-06-14T18:35:20.444Z,20.40
2018-06-14T18:37:49.005Z,20.30
2018-06-14T18:40:17.563Z,20.30
2018-06-14T18:42:46.141Z,20.10
2018-06-14T18:45:14.703Z,20.20
2018-06-14T18:47:44.049Z,20.00
2018-06-14T18:50:12.612Z,20.10
2018-06-14T18:52:41.317Z,20.00
2018-06-14T18:55:09.877Z,19.90
2018-06-14T18:57:38.385Z,19.80
2018-06-14T19:00:07.014Z,19.70
2018-06-14T19:07:31.957Z,19.70
2018-06-14T19:12:28.686Z,19.50
2018-06-14T19:14:57.243Z,19.50
2018-06-14T19:17:25.827Z,19.50
2018-06-14T19:19:54.607Z,19.50
2018-06-14T19:22:23.296Z,19.40
2018-06-14T19:24:51.940Z,19.40
2018-06-14T19:29:48.827Z,19.30
2018-06-14T19:32:17.357Z,19.20
2018-06-14T19:34:45.860Z,19.30
2018-06-14T19:37:14.423Z,19.30
2018-06-14T19:39:42.938Z,19.30
2018-06-14T19:44:39.680Z,19.10
2018-06-14T19:47:08.214Z,18.90
2018-06-14T19:49:36.726Z,18.70
2018-06-14T19:52:05.268Z,18.50
2018-06-14T19:54:33.768Z,18.40
2018-06-14T19:57:02.305Z,18.40
2018-06-14T20:04:27.173Z,18.30
2018-06-14T20:06:55.706Z,18.10
2018-06-14T20:09:24.275Z,18.20
2018-06-14T20:11:52.962Z,18.30
2018-06-14T20:14:21.517Z,18.30
2018-06-14T20:16:50.090Z,18.10
2018-06-14T20:19:18.638Z,18.10
2018-06-14T20:21:47.186Z,18.00
2018-06-14T20:24:15.735Z,17.90
2018-06-14T20:26:44.293Z,17.90
2018-06-14T20:29:12.814Z,18.00
2018-06-14T20:31:41.341Z,18.00
2018-06-14T20:34:09.861Z,17.90
2018-06-14T20:41:37.085Z,17.80
2018-06-14T20:44:05.603Z,17.80
2018-06-14T20:46:34.163Z,17.80
2018-06-14T20:49:02.664Z,17.70
2018-06-14T20:51:31.213Z,17.70
2018-06-14T20:53:59.903Z,17.50
2018-06-14T20:56:28.484Z,17.30
2018-06-14T20:58:56.994Z,17.10
2018-06-14T21:01:25.522Z,17.10
2018-06-14T21:03:54.915Z,16.90
2018-06-14T21:08:51.668Z,16.80
2018-06-14T21:13:48.443Z,16.80
2018-06-14T21:16:17.430Z,16.90
2018-06-14T21:21:14.163Z,17.00
2018-06-14T21:23:42.702Z,17.00
2018-06-14T21:26:12.201Z,17.00
2018-06-14T21:28:40.739Z,16.90
2018-06-14T21:31:09.233Z,16.90
2018-06-14T21:36:05.959Z,16.80
2018-06-14T21:38:34.533Z,16.80
2018-06-14T21:41:03.039Z,16.80
2018-06-14T21:43:31.578Z,16.70
2018-06-14T21:46:00.083Z,16.70
2018-06-14T21:48:28.607Z,16.70
2018-06-14T21:55:53.507Z,16.70
2018-06-14T21:58:22.095Z,16.70
2018-06-14T22:00:50.642Z,16.70
2018-06-14T22:03:24.486Z,16.70
2018-06-14T22:05:53.624Z,16.80
2018-06-14T22:10:50.343Z,16.80
2018-06-14T22:13:18.923Z,16.70
2018-06-14T22:15:47.434Z,16.60
2018-06-14T22:18:15.992Z,16.70
2018-06-14T22:20:44.501Z,16.70
2018-06-14T22:23:13.770Z,16.60
2018-06-14T22:25:42.353Z,16.50
2018-06-14T22:28:10.905Z,16.40
2018-06-14T22:30:39.406Z,16.40
2018-06-14T22:33:19.425Z,16.30
2018-06-14T22:35:47.957Z,16.40
2018-06-14T22:38:17.222Z,16.50
2018-06-14T22:40:45.759Z,16.50
2018-06-14T22:43:14.320Z,16.50
2018-06-14T22:45:42.821Z,16.50
2018-06-14T22:48:11.386Z,16.50
2018-06-14T22:50:51.146Z,16.40
2018-06-14T22:53:19.670Z,16.50
2018-06-14T22:58:16.939Z,16.40
2018-06-14T23:04:21.341Z,16.40
2018-06-14T23:06:50.016Z,16.40
2018-06-14T23:10:33.712Z,16.40
2018-06-14T23:17:59.833Z,16.50
2018-06-14T23:20:30.361Z,16.50
2018-06-14T23:23:00.489Z,16.50
2018-06-14T23:25:30.814Z,16.60
2018-06-14T23:27:59.359Z,16.50
2018-06-14T23:30:27.909Z,16.50
2018-06-14T23:32:56.784Z,16.50
2018-06-14T23:35:25.353Z,16.50
2018-06-14T23:37:53.916Z,16.30
2018-06-14T23:40:22.782Z,16.30
2018-06-14T23:42:51.277Z,16.30
2018-06-14T23:45:19.785Z,16.40
2018-06-14T23:47:48.314Z,16.30
2018-06-14T23:52:45.031Z,16.30
2018-06-14T23:55:13.577Z,16.40
2018-06-14T23:57:42.081Z,16.40
